sensor_id;sensor_type;location;lat;lon;timestamp;noise_LAeq;noise_LA_min;noise_LA_max;noise_LA01;noise_LA95
48148;Laerm;29352;48.708;9.290;2024-02-14T00:00:10;15.00;15.00;15.00;;
48148;Laerm;29352;48.708;9.290;2024-02-14T00:02:46;15.00;15.00;15.00;;
48148;Laerm;29352;48.708;9.290;2024-02-14T00:05:15;15.00;15.00;15.00;;
48148;Laerm;29352;48.708;9.290;2024-02-14T00:07:41;15.00;15.00;15.00;;
48148;Laerm;29352;48.708;9.290;2024-02-14T00:10:08;16.37;15.00;43.90;;
48148;Laerm;29352;48.708;9.290;2024-02-14T00:12:35;25.06;15.00;46.69;;
48148;Laerm;29352;48.708;9.290;2024-02-14T00:15:05;28.93;15.00;46.20;;
48148;Laerm;29352;48.708;9.290;2024-02-14T00:17:33;37.20;15.00;47.88;;
48148;Laerm;29352;48.708;9.290;2024-02-14T00:20:03;40.98;15.00;49.23;;
48148;Laerm;29352;48.708;9.290;2024-02-14T00:22:30;42.68;15.00;49.70;;
48148;Laerm;29352;48.708;9.290;2024-02-14T00:24:56;45.11;15.00;50.53;;
48148;Laerm;29352;48.708;9.290;2024-02-14T00:27:22;44.07;15.00;50.62;;
48148;Laerm;29352;48.708;9.290;2024-02-14T00:29:47;42.94;15.00;49.58;;
48148;Laerm;29352;48.708;9.290;2024-02-14T00:32:14;41.52;15.00;50.13;;
48148;Laerm;29352;48.708;9.290;2024-02-14T00:34:39;36.28;15.00;48.02;;
48148;Laerm;29352;48.708;9.290;2024-02-14T00:37:05;40.11;15.00;49.21;;
48148;Laerm;29352;48.708;9.290;2024-02-14T00:39:31;43.02;15.00;49.81;;
48148;Laerm;29352;48.708;9.290;2024-02-14T00:41:56;45.07;15.00;50.89;;
48148;Laerm;29352;48.708;9.290;2024-02-14T00:44:22;47.30;33.90;51.46;;
48148;Laerm;29352;48.708;9.290;2024-02-14T00:46:48;47.86;39.92;51.53;;
48148;Laerm;29352;48.708;9.290;2024-02-14T00:49:14;48.05;41.68;52.53;;
48148;Laerm;29352;48.708;9.290;2024-02-14T00:51:40;48.39;41.68;52.09;;
48148;Laerm;29352;48.708;9.290;2024-02-14T00:54:07;48.40;39.92;51.75;;
48148;Laerm;29352;48.708;9.290;2024-02-14T00:56:34;47.97;15.00;51.61;;
48148;Laerm;29352;48.708;9.290;2024-02-14T00:59:00;48.21;39.57;52.22;;
48148;Laerm;29352;48.708;9.290;2024-02-14T01:01:26;48.32;38.67;52.16;;
48148;Laerm;29352;48.708;9.290;2024-02-14T01:03:52;48.53;41.68;52.35;;
48148;Laerm;29352;48.708;9.290;2024-02-14T01:06:18;48.56;15.00;52.16;;
48148;Laerm;29352;48.708;9.290;2024-02-14T01:08:44;48.64;15.00;52.22;;
48148;Laerm;29352;48.708;9.290;2024-02-14T01:11:10;35.46;15.00;50.71;;
48148;Laerm;29352;48.708;9.290;2024-02-14T01:13:36;42.34;15.00;50.45;;
48148;Laerm;29352;48.708;9.290;2024-02-14T01:16:03;46.64;15.00;51.82;;
48148;Laerm;29352;48.708;9.290;2024-02-14T01:18:33;43.07;15.00;50.53;;
48148;Laerm;29352;48.708;9.290;2024-02-14T01:20:59;25.13;15.00;44.69;;
48148;Laerm;29352;48.708;9.290;2024-02-14T01:23:26;20.52;15.00;46.91;;
48148;Laerm;29352;48.708;9.290;2024-02-14T01:25:51;15.31;15.00;36.91;;
48148;Laerm;29352;48.708;9.290;2024-02-14T01:28:20;15.00;15.00;15.00;;
48148;Laerm;29352;48.708;9.290;2024-02-14T01:30:45;15.00;15.00;15.00;;
48148;Laerm;29352;48.708;9.290;2024-02-14T01:33:11;15.00;15.00;15.00;;
48148;Laerm;29352;48.708;9.290;2024-02-14T01:35:36;15.00;15.00;15.00;;
48148;Laerm;29352;48.708;9.290;2024-02-14T01:38:02;15.00;15.00;15.00;;
48148;Laerm;29352;48.708;9.290;2024-02-14T01:40:31;15.00;15.00;15.00;;
48148;Laerm;29352;48.708;9.290;2024-02-14T01:42:56;15.00;15.00;15.00;;
48148;Laerm;29352;48.708;9.290;2024-02-14T01:45:22;15.00;15.00;15.00;;
48148;Laerm;29352;48.708;9.290;2024-02-14T01:47:50;15.00;15.00;15.00;;
48148;Laerm;29352;48.708;9.290;2024-02-14T01:50:16;15.00;15.00;15.00;;
48148;Laerm;29352;48.708;9.290;2024-02-14T01:52:45;15.00;15.00;15.00;;
48148;Laerm;29352;48.708;9.290;2024-02-14T01:55:13;15.00;15.00;15.00;;
48148;Laerm;29352;48.708;9.290;2024-02-14T01:57:39;15.00;15.00;15.00;;
48148;Laerm;29352;48.708;9.290;2024-02-14T02:00:06;15.00;15.00;15.00;;
48148;Laerm;29352;48.708;9.290;2024-02-14T02:02:35;15.00;15.00;15.00;;
48148;Laerm;29352;48.708;9.290;2024-02-14T02:05:05;15.00;15.00;15.00;;
48148;Laerm;29352;48.708;9.290;2024-02-14T02:07:32;15.00;15.00;15.00;;
48148;Laerm;29352;48.708;9.290;2024-02-14T02:09:58;15.00;15.00;15.00;;
48148;Laerm;29352;48.708;9.290;2024-02-14T02:12:24;15.00;15.00;15.00;;
48148;Laerm;29352;48.708;9.290;2024-02-14T02:14:53;15.00;15.00;15.00;;
48148;Laerm;29352;48.708;9.290;2024-02-14T02:17:19;15.00;15.00;15.00;;
48148;Laerm;29352;48.708;9.290;2024-02-14T02:19:46;15.00;15.00;15.00;;
48148;Laerm;29352;48.708;9.290;2024-02-14T02:22:12;15.00;15.00;15.00;;
48148;Laerm;29352;48.708;9.290;2024-02-14T02:24:38;15.00;15.00;15.00;;
48148;Laerm;29352;48.708;9.290;2024-02-14T02:27:03;15.00;15.00;15.00;;
48148;Laerm;29352;48.708;9.290;2024-02-14T02:29:29;15.00;15.00;15.00;;
48148;Laerm;29352;48.708;9.290;2024-02-14T02:31:58;15.00;15.00;15.00;;
48148;Laerm;29352;48.708;9.290;2024-02-14T02:34:23;15.00;15.00;15.00;;
48148;Laerm;29352;48.708;9.290;2024-02-14T02:36:49;15.00;15.00;15.00;;
48148;Laerm;29352;48.708;9.290;2024-02-14T02:39:16;15.00;15.00;15.00;;
48148;Laerm;29352;48.708;9.290;2024-02-14T02:41:42;15.00;15.00;15.00;;
48148;Laerm;29352;48.708;9.290;2024-02-14T02:44:07;15.00;15.00;15.00;;
48148;Laerm;29352;48.708;9.290;2024-02-14T02:46:33;15.00;15.00;15.00;;
48148;Laerm;29352;48.708;9.290;2024-02-14T02:48:58;15.00;15.00;15.00;;
48148;Laerm;29352;48.708;9.290;2024-02-14T02:51:24;15.00;15.00;15.00;;
48148;Laerm;29352;48.708;9.290;2024-02-14T02:53:50;15.00;15.00;15.00;;
48148;Laerm;29352;48.708;9.290;2024-02-14T02:56:17;15.00;15.00;15.00;;
48148;Laerm;29352;48.708;9.290;2024-02-14T02:58:44;15.00;15.00;15.00;;
48148;Laerm;29352;48.708;9.290;2024-02-14T03:01:10;15.00;15.00;15.00;;
48148;Laerm;29352;48.708;9.290;2024-02-14T03:03:38;15.00;15.00;15.00;;
48148;Laerm;29352;48.708;9.290;2024-02-14T03:06:05;15.00;15.00;15.00;;
48148;Laerm;29352;48.708;9.290;2024-02-14T03:08:31;15.00;15.00;15.00;;
48148;Laerm;29352;48.708;9.290;2024-02-14T03:11:07;15.00;15.00;15.00;;
48148;Laerm;29352;48.708;9.290;2024-02-14T03:13:33;15.00;15.00;15.00;;
48148;Laerm;29352;48.708;9.290;2024-02-14T03:15:59;15.00;15.00;15.00;;
48148;Laerm;29352;48.708;9.290;2024-02-14T03:18:25;15.00;15.00;15.00;;
48148;Laerm;29352;48.708;9.290;2024-02-14T03:20:51;15.00;15.00;15.00;;
48148;Laerm;29352;48.708;9.290;2024-02-14T03:23:19;15.00;15.00;15.00;;
48148;Laerm;29352;48.708;9.290;2024-02-14T03:25:45;15.00;15.00;15.00;;
48148;Laerm;29352;48.708;9.290;2024-02-14T03:28:10;15.00;15.00;15.00;;
48148;Laerm;29352;48.708;9.290;2024-02-14T03:30:38;15.00;15.00;15.00;;
48148;Laerm;29352;48.708;9.290;2024-02-14T03:35:35;15.00;15.00;15.00;;
48148;Laerm;29352;48.708;9.290;2024-02-14T03:38:02;15.00;15.00;15.00;;
48148;Laerm;29352;48.708;9.290;2024-02-14T03:40:28;15.00;15.00;15.00;;
48148;Laerm;29352;48.708;9.290;2024-02-14T03:42:56;15.00;15.00;15.00;;
48148;Laerm;29352;48.708;9.290;2024-02-14T03:45:22;15.00;15.00;15.00;;
48148;Laerm;29352;48.708;9.290;2024-02-14T03:47:48;15.00;15.00;15.00;;
48148;Laerm;29352;48.708;9.290;2024-02-14T03:50:14;15.00;15.00;15.00;;
48148;Laerm;29352;48.708;9.290;2024-02-14T03:52:40;15.00;15.00;15.00;;
48148;Laerm;29352;48.708;9.290;2024-02-14T03:55:08;15.00;15.00;15.00;;
48148;Laerm;29352;48.708;9.290;2024-02-14T03:57:34;15.00;15.00;15.00;;
48148;Laerm;29352;48.708;9.290;2024-02-14T04:00:04;15.00;15.00;15.00;;
48148;Laerm;29352;48.708;9.290;2024-02-14T04:02:34;15.00;15.00;15.00;;
48148;Laerm;29352;48.708;9.290;2024-02-14T04:05:00;15.00;15.00;15.00;;
48148;Laerm;29352;48.708;9.290;2024-02-14T04:07:28;15.00;15.00;15.00;;
48148;Laerm;29352;48.708;9.290;2024-02-14T04:09:55;15.00;15.00;15.00;;
48148;Laerm;29352;48.708;9.290;2024-02-14T04:12:21;15.00;15.00;15.00;;
48148;Laerm;29352;48.708;9.290;2024-02-14T04:14:47;15.00;15.00;15.00;;
48148;Laerm;29352;48.708;9.290;2024-02-14T04:17:12;15.00;15.00;15.00;;
48148;Laerm;29352;48.708;9.290;2024-02-14T04:19:39;15.00;15.00;15.00;;
48148;Laerm;29352;48.708;9.290;2024-02-14T04:22:05;15.00;15.00;15.00;;
48148;Laerm;29352;48.708;9.290;2024-02-14T04:24:33;15.00;15.00;15.00;;
48148;Laerm;29352;48.708;9.290;2024-02-14T04:27:00;15.00;15.00;15.00;;
48148;Laerm;29352;48.708;9.290;2024-02-14T04:29:28;15.00;15.00;15.00;;
48148;Laerm;29352;48.708;9.290;2024-02-14T04:31:56;15.00;15.00;15.00;;
48148;Laerm;29352;48.708;9.290;2024-02-14T04:34:23;15.00;15.00;15.00;;
48148;Laerm;29352;48.708;9.290;2024-02-14T04:36:49;15.00;15.00;15.00;;
48148;Laerm;29352;48.708;9.290;2024-02-14T04:39:14;15.00;15.00;15.00;;
48148;Laerm;29352;48.708;9.290;2024-02-14T04:41:40;15.00;15.00;15.00;;
48148;Laerm;29352;48.708;9.290;2024-02-14T04:44:05;15.00;15.00;15.00;;
48148;Laerm;29352;48.708;9.290;2024-02-14T04:46:34;15.00;15.00;15.00;;
48148;Laerm;29352;48.708;9.290;2024-02-14T04:49:03;15.00;15.00;15.00;;
48148;Laerm;29352;48.708;9.290;2024-02-14T04:51:30;15.00;15.00;15.00;;
48148;Laerm;29352;48.708;9.290;2024-02-14T04:53:57;15.00;15.00;15.00;;
48148;Laerm;29352;48.708;9.290;2024-02-14T04:56:27;15.00;15.00;15.00;;
48148;Laerm;29352;48.708;9.290;2024-02-14T04:58:55;15.00;15.00;15.00;;
48148;Laerm;29352;48.708;9.290;2024-02-14T05:01:21;15.00;15.00;15.00;;
48148;Laerm;29352;48.708;9.290;2024-02-14T05:03:48;15.00;15.00;15.00;;
48148;Laerm;29352;48.708;9.290;2024-02-14T05:06:14;15.00;15.00;15.00;;
48148;Laerm;29352;48.708;9.290;2024-02-14T05:08:39;15.00;15.00;15.00;;
48148;Laerm;29352;48.708;9.290;2024-02-14T05:11:05;15.00;15.00;15.00;;
48148;Laerm;29352;48.708;9.290;2024-02-14T05:13:31;15.00;15.00;15.00;;
48148;Laerm;29352;48.708;9.290;2024-02-14T05:15:57;15.00;15.00;15.00;;
48148;Laerm;29352;48.708;9.290;2024-02-14T05:18:23;15.00;15.00;15.00;;
48148;Laerm;29352;48.708;9.290;2024-02-14T05:20:48;15.00;15.00;15.00;;
48148;Laerm;29352;48.708;9.290;2024-02-14T05:23:15;15.00;15.00;15.00;;
48148;Laerm;29352;48.708;9.290;2024-02-14T05:25:43;15.00;15.00;15.00;;
48148;Laerm;29352;48.708;9.290;2024-02-14T05:28:09;15.00;15.00;15.00;;
48148;Laerm;29352;48.708;9.290;2024-02-14T05:30:42;15.00;15.00;15.00;;
48148;Laerm;29352;48.708;9.290;2024-02-14T05:33:08;15.00;15.00;15.00;;
48148;Laerm;29352;48.708;9.290;2024-02-14T05:35:33;15.00;15.00;15.00;;
48148;Laerm;29352;48.708;9.290;2024-02-14T05:37:59;15.00;15.00;15.00;;
48148;Laerm;29352;48.708;9.290;2024-02-14T05:40:24;15.00;15.00;15.00;;
48148;Laerm;29352;48.708;9.290;2024-02-14T05:42:51;15.00;15.00;15.00;;
48148;Laerm;29352;48.708;9.290;2024-02-14T05:45:17;15.00;15.00;15.00;;
48148;Laerm;29352;48.708;9.290;2024-02-14T05:47:43;15.00;15.00;15.00;;
48148;Laerm;29352;48.708;9.290;2024-02-14T05:50:09;15.00;15.00;15.00;;
48148;Laerm;29352;48.708;9.290;2024-02-14T05:52:37;15.00;15.00;15.00;;
48148;Laerm;29352;48.708;9.290;2024-02-14T05:55:04;15.00;15.00;15.00;;
48148;Laerm;29352;48.708;9.290;2024-02-14T05:57:30;15.00;15.00;15.00;;
48148;Laerm;29352;48.708;9.290;2024-02-14T05:59:55;15.00;15.00;15.00;;
48148;Laerm;29352;48.708;9.290;2024-02-14T06:02:21;15.00;15.00;15.00;;
48148;Laerm;29352;48.708;9.290;2024-02-14T06:04:47;15.00;15.00;15.00;;
48148;Laerm;29352;48.708;9.290;2024-02-14T06:07:12;15.00;15.00;15.00;;
48148;Laerm;29352;48.708;9.290;2024-02-14T06:09:38;15.00;15.00;15.00;;
48148;Laerm;29352;48.708;9.290;2024-02-14T06:12:04;15.00;15.00;15.00;;
48148;Laerm;29352;48.708;9.290;2024-02-14T06:14:30;15.00;15.00;15.00;;
48148;Laerm;29352;48.708;9.290;2024-02-14T06:16:56;15.00;15.00;15.00;;
48148;Laerm;29352;48.708;9.290;2024-02-14T06:19:22;15.00;15.00;15.00;;
48148;Laerm;29352;48.708;9.290;2024-02-14T06:21:48;15.00;15.00;15.00;;
48148;Laerm;29352;48.708;9.290;2024-02-14T06:24:14;15.00;15.00;15.00;;
48148;Laerm;29352;48.708;9.290;2024-02-14T06:26:39;15.00;15.00;15.00;;
48148;Laerm;29352;48.708;9.290;2024-02-14T06:29:05;15.00;15.00;15.00;;
48148;Laerm;29352;48.708;9.290;2024-02-14T06:31:31;15.00;15.00;15.00;;
48148;Laerm;29352;48.708;9.290;2024-02-14T06:33:56;15.00;15.00;15.00;;
48148;Laerm;29352;48.708;9.290;2024-02-14T06:36:22;15.00;15.00;15.00;;
48148;Laerm;29352;48.708;9.290;2024-02-14T06:38:47;15.00;15.00;15.00;;
48148;Laerm;29352;48.708;9.290;2024-02-14T06:41:13;15.00;15.00;15.00;;
48148;Laerm;29352;48.708;9.290;2024-02-14T06:43:38;15.00;15.00;15.00;;
48148;Laerm;29352;48.708;9.290;2024-02-14T06:46:05;15.00;15.00;15.00;;
48148;Laerm;29352;48.708;9.290;2024-02-14T06:48:31;15.00;15.00;15.00;;
48148;Laerm;29352;48.708;9.290;2024-02-14T06:50:57;15.00;15.00;15.00;;
48148;Laerm;29352;48.708;9.290;2024-02-14T06:53:22;15.00;15.00;15.00;;
48148;Laerm;29352;48.708;9.290;2024-02-14T06:55:48;15.00;15.00;15.00;;
48148;Laerm;29352;48.708;9.290;2024-02-14T06:58:14;15.00;15.00;15.00;;
48148;Laerm;29352;48.708;9.290;2024-02-14T07:00:39;15.00;15.00;15.00;;
48148;Laerm;29352;48.708;9.290;2024-02-14T07:03:05;15.00;15.00;15.00;;
48148;Laerm;29352;48.708;9.290;2024-02-14T07:05:30;15.00;15.00;15.00;;
48148;Laerm;29352;48.708;9.290;2024-02-14T07:07:56;15.00;15.00;15.00;;
48148;Laerm;29352;48.708;9.290;2024-02-14T07:10:22;15.00;15.00;15.00;;
48148;Laerm;29352;48.708;9.290;2024-02-14T07:12:48;15.00;15.00;15.00;;
48148;Laerm;29352;48.708;9.290;2024-02-14T07:15:13;15.00;15.00;15.00;;
48148;Laerm;29352;48.708;9.290;2024-02-14T07:17:40;15.00;15.00;15.00;;
48148;Laerm;29352;48.708;9.290;2024-02-14T07:20:06;15.00;15.00;15.00;;
48148;Laerm;29352;48.708;9.290;2024-02-14T07:22:36;15.00;15.00;15.00;;
48148;Laerm;29352;48.708;9.290;2024-02-14T07:25:02;15.00;15.00;15.00;;
48148;Laerm;29352;48.708;9.290;2024-02-14T07:27:30;15.00;15.00;15.00;;
48148;Laerm;29352;48.708;9.290;2024-02-14T07:29:56;15.00;15.00;15.00;;
48148;Laerm;29352;48.708;9.290;2024-02-14T07:34:47;15.00;15.00;15.00;;
48148;Laerm;29352;48.708;9.290;2024-02-14T07:37:13;15.00;15.00;15.00;;
48148;Laerm;29352;48.708;9.290;2024-02-14T07:39:40;15.00;15.00;15.00;;
48148;Laerm;29352;48.708;9.290;2024-02-14T07:42:06;15.00;15.00;15.00;;
48148;Laerm;29352;48.708;9.290;2024-02-14T07:44:33;15.00;15.00;15.00;;
48148;Laerm;29352;48.708;9.290;2024-02-14T07:46:58;15.00;15.00;15.00;;
48148;Laerm;29352;48.708;9.290;2024-02-14T07:49:24;15.00;15.00;15.00;;
48148;Laerm;29352;48.708;9.290;2024-02-14T07:51:49;15.00;15.00;15.00;;
48148;Laerm;29352;48.708;9.290;2024-02-14T07:54:15;15.00;15.00;15.00;;
48148;Laerm;29352;48.708;9.290;2024-02-14T07:56:41;15.00;15.00;15.00;;
48148;Laerm;29352;48.708;9.290;2024-02-14T07:59:06;15.00;15.00;15.00;;
48148;Laerm;29352;48.708;9.290;2024-02-14T08:01:32;15.00;15.00;15.00;;
48148;Laerm;29352;48.708;9.290;2024-02-14T08:04:00;15.00;15.00;15.00;;
48148;Laerm;29352;48.708;9.290;2024-02-14T08:06:26;15.00;15.00;15.00;;
48148;Laerm;29352;48.708;9.290;2024-02-14T08:08:51;15.00;15.00;15.00;;
48148;Laerm;29352;48.708;9.290;2024-02-14T08:11:22;15.00;15.00;15.00;;
48148;Laerm;29352;48.708;9.290;2024-02-14T08:13:48;15.00;15.00;15.00;;
48148;Laerm;29352;48.708;9.290;2024-02-14T08:16:13;15.00;15.00;15.00;;
48148;Laerm;29352;48.708;9.290;2024-02-14T08:18:39;15.00;15.00;15.00;;
48148;Laerm;29352;48.708;9.290;2024-02-14T08:21:06;15.00;15.00;15.00;;
48148;Laerm;29352;48.708;9.290;2024-02-14T08:23:32;15.00;15.00;15.00;;
48148;Laerm;29352;48.708;9.290;2024-02-14T08:25:59;15.00;15.00;15.00;;
48148;Laerm;29352;48.708;9.290;2024-02-14T08:28:25;15.00;15.00;15.00;;
48148;Laerm;29352;48.708;9.290;2024-02-14T08:30:51;15.00;15.00;15.00;;
48148;Laerm;29352;48.708;9.290;2024-02-14T08:35:42;15.00;15.00;15.00;;
48148;Laerm;29352;48.708;9.290;2024-02-14T08:38:08;15.00;15.00;15.00;;
48148;Laerm;29352;48.708;9.290;2024-02-14T08:40:34;15.00;15.00;15.00;;
48148;Laerm;29352;48.708;9.290;2024-02-14T08:42:59;15.00;15.00;15.00;;
48148;Laerm;29352;48.708;9.290;2024-02-14T08:45:26;15.00;15.00;15.00;;
48148;Laerm;29352;48.708;9.290;2024-02-14T08:47:55;15.00;15.00;15.00;;
48148;Laerm;29352;48.708;9.290;2024-02-14T08:50:21;15.00;15.00;15.00;;
48148;Laerm;29352;48.708;9.290;2024-02-14T08:52:46;15.00;15.00;15.00;;
48148;Laerm;29352;48.708;9.290;2024-02-14T08:55:12;15.00;15.00;15.00;;
48148;Laerm;29352;48.708;9.290;2024-02-14T08:57:42;15.00;15.00;15.00;;
48148;Laerm;29352;48.708;9.290;2024-02-14T09:00:09;15.00;15.00;15.00;;
48148;Laerm;29352;48.708;9.290;2024-02-14T09:02:36;15.00;15.00;15.00;;
48148;Laerm;29352;48.708;9.290;2024-02-14T09:05:03;15.00;15.00;15.00;;
48148;Laerm;29352;48.708;9.290;2024-02-14T09:07:31;15.00;15.00;15.00;;
48148;Laerm;29352;48.708;9.290;2024-02-14T09:09:57;15.00;15.00;15.00;;
48148;Laerm;29352;48.708;9.290;2024-02-14T09:12:23;15.00;15.00;15.00;;
48148;Laerm;29352;48.708;9.290;2024-02-14T09:14:49;15.00;15.00;15.00;;
48148;Laerm;29352;48.708;9.290;2024-02-14T09:17:14;15.00;15.00;15.00;;
48148;Laerm;29352;48.708;9.290;2024-02-14T09:19:40;15.00;15.00;15.00;;
48148;Laerm;29352;48.708;9.290;2024-02-14T09:22:06;15.00;15.00;15.00;;
48148;Laerm;29352;48.708;9.290;2024-02-14T09:24:32;15.00;15.00;15.00;;
48148;Laerm;29352;48.708;9.290;2024-02-14T09:26:58;15.00;15.00;15.00;;
48148;Laerm;29352;48.708;9.290;2024-02-14T09:29:24;15.00;15.00;15.00;;
48148;Laerm;29352;48.708;9.290;2024-02-14T09:31:51;15.00;15.00;15.00;;
48148;Laerm;29352;48.708;9.290;2024-02-14T09:34:17;15.00;15.00;15.00;;
48148;Laerm;29352;48.708;9.290;2024-02-14T09:36:47;15.00;15.00;15.00;;
48148;Laerm;29352;48.708;9.290;2024-02-14T09:39:15;15.00;15.00;15.00;;
48148;Laerm;29352;48.708;9.290;2024-02-14T09:41:46;15.00;15.00;15.00;;
48148;Laerm;29352;48.708;9.290;2024-02-14T09:44:14;15.00;15.00;15.00;;
48148;Laerm;29352;48.708;9.290;2024-02-14T09:46:40;15.00;15.00;15.00;;
48148;Laerm;29352;48.708;9.290;2024-02-14T09:49:06;15.00;15.00;15.00;;
48148;Laerm;29352;48.708;9.290;2024-02-14T09:51:32;15.00;15.00;15.00;;
48148;Laerm;29352;48.708;9.290;2024-02-14T09:54:00;15.00;15.00;15.00;;
48148;Laerm;29352;48.708;9.290;2024-02-14T09:56:28;15.00;15.00;15.00;;
48148;Laerm;29352;48.708;9.290;2024-02-14T09:58:54;15.00;15.00;15.00;;
48148;Laerm;29352;48.708;9.290;2024-02-14T10:01:25;15.00;15.00;15.00;;
48148;Laerm;29352;48.708;9.290;2024-02-14T10:03:51;15.00;15.00;15.00;;
48148;Laerm;29352;48.708;9.290;2024-02-14T10:06:18;15.00;15.00;15.00;;
48148;Laerm;29352;48.708;9.290;2024-02-14T10:08:50;15.00;15.00;15.00;;
48148;Laerm;29352;48.708;9.290;2024-02-14T10:11:20;15.00;15.00;15.00;;
48148;Laerm;29352;48.708;9.290;2024-02-14T10:13:49;15.00;15.00;15.00;;
48148;Laerm;29352;48.708;9.290;2024-02-14T10:16:19;15.00;15.00;15.00;;
48148;Laerm;29352;48.708;9.290;2024-02-14T10:18:46;15.00;15.00;15.00;;
48148;Laerm;29352;48.708;9.290;2024-02-14T10:21:16;15.00;15.00;15.00;;
48148;Laerm;29352;48.708;9.290;2024-02-14T10:23:44;15.00;15.00;15.00;;
48148;Laerm;29352;48.708;9.290;2024-02-14T10:26:14;15.00;15.00;15.00;;
48148;Laerm;29352;48.708;9.290;2024-02-14T10:28:43;15.00;15.00;15.00;;
48148;Laerm;29352;48.708;9.290;2024-02-14T10:31:11;15.00;15.00;15.00;;
48148;Laerm;29352;48.708;9.290;2024-02-14T10:33:39;15.00;15.00;15.00;;
48148;Laerm;29352;48.708;9.290;2024-02-14T10:36:07;15.00;15.00;15.00;;
48148;Laerm;29352;48.708;9.290;2024-02-14T10:38:34;15.00;15.00;15.00;;
48148;Laerm;29352;48.708;9.290;2024-02-14T10:41:02;15.00;15.00;15.00;;
48148;Laerm;29352;48.708;9.290;2024-02-14T10:43:28;15.00;15.00;15.00;;
48148;Laerm;29352;48.708;9.290;2024-02-14T10:45:59;15.00;15.00;15.00;;
48148;Laerm;29352;48.708;9.290;2024-02-14T10:48:30;15.00;15.00;15.00;;
48148;Laerm;29352;48.708;9.290;2024-02-14T10:51:02;15.00;15.00;15.00;;
48148;Laerm;29352;48.708;9.290;2024-02-14T10:53:33;15.00;15.00;15.00;;
48148;Laerm;29352;48.708;9.290;2024-02-14T10:56:01;15.00;15.00;15.00;;
48148;Laerm;29352;48.708;9.290;2024-02-14T10:58:30;15.00;15.00;15.00;;
48148;Laerm;29352;48.708;9.290;2024-02-14T11:00:58;15.00;15.00;15.00;;
48148;Laerm;29352;48.708;9.290;2024-02-14T11:03:26;15.00;15.00;15.00;;
48148;Laerm;29352;48.708;9.290;2024-02-14T11:05:54;15.00;15.00;15.00;;
48148;Laerm;29352;48.708;9.290;2024-02-14T11:08:29;15.00;15.00;15.00;;
48148;Laerm;29352;48.708;9.290;2024-02-14T11:11:00;15.00;15.00;15.00;;
48148;Laerm;29352;48.708;9.290;2024-02-14T11:13:28;15.00;15.00;15.00;;
48148;Laerm;29352;48.708;9.290;2024-02-14T11:15:54;15.00;15.00;15.00;;
48148;Laerm;29352;48.708;9.290;2024-02-14T11:18:28;15.00;15.00;15.00;;
48148;Laerm;29352;48.708;9.290;2024-02-14T11:20:58;15.00;15.00;15.00;;
48148;Laerm;29352;48.708;9.290;2024-02-14T11:23:25;15.00;15.00;15.00;;
48148;Laerm;29352;48.708;9.290;2024-02-14T11:26:00;15.00;15.00;15.00;;
48148;Laerm;29352;48.708;9.290;2024-02-14T11:28:28;15.00;15.00;15.00;;
48148;Laerm;29352;48.708;9.290;2024-02-14T11:31:01;15.00;15.00;15.00;;
48148;Laerm;29352;48.708;9.290;2024-02-14T11:33:29;15.00;15.00;15.00;;
48148;Laerm;29352;48.708;9.290;2024-02-14T11:35:55;15.00;15.00;15.00;;
48148;Laerm;29352;48.708;9.290;2024-02-14T11:38:24;15.00;15.00;15.00;;
48148;Laerm;29352;48.708;9.290;2024-02-14T11:40:54;15.00;15.00;15.00;;
48148;Laerm;29352;48.708;9.290;2024-02-14T11:43:22;15.00;15.00;15.00;;
48148;Laerm;29352;48.708;9.290;2024-02-14T11:45:48;15.00;15.00;15.00;;
48148;Laerm;29352;48.708;9.290;2024-02-14T11:48:23;15.00;15.00;15.00;;
48148;Laerm;29352;48.708;9.290;2024-02-14T11:50:51;15.00;15.00;15.00;;
48148;Laerm;29352;48.708;9.290;2024-02-14T11:53:18;15.00;15.00;15.00;;
48148;Laerm;29352;48.708;9.290;2024-02-14T11:55:47;15.00;15.00;15.00;;
48148;Laerm;29352;48.708;9.290;2024-02-14T11:58:15;15.00;15.00;15.00;;
48148;Laerm;29352;48.708;9.290;2024-02-14T12:00:46;15.00;15.00;15.00;;
48148;Laerm;29352;48.708;9.290;2024-02-14T12:03:20;15.00;15.00;15.00;;
48148;Laerm;29352;48.708;9.290;2024-02-14T12:05:49;15.00;15.00;15.00;;
48148;Laerm;29352;48.708;9.290;2024-02-14T12:08:16;15.00;15.00;15.00;;
48148;Laerm;29352;48.708;9.290;2024-02-14T12:10:44;15.00;15.00;15.00;;
48148;Laerm;29352;48.708;9.290;2024-02-14T12:13:17;15.00;15.00;15.00;;
48148;Laerm;29352;48.708;9.290;2024-02-14T12:15:47;15.00;15.00;15.00;;
48148;Laerm;29352;48.708;9.290;2024-02-14T12:18:15;15.00;15.00;15.00;;
48148;Laerm;29352;48.708;9.290;2024-02-14T12:20:44;15.00;15.00;15.00;;
48148;Laerm;29352;48.708;9.290;2024-02-14T12:23:16;15.00;15.00;15.00;;
48148;Laerm;29352;48.708;9.290;2024-02-14T12:25:44;15.00;15.00;15.00;;
48148;Laerm;29352;48.708;9.290;2024-02-14T12:28:17;15.00;15.00;15.00;;
48148;Laerm;29352;48.708;9.290;2024-02-14T12:33:14;15.00;15.00;15.00;;
48148;Laerm;29352;48.708;9.290;2024-02-14T12:35:45;15.00;15.00;15.00;;
48148;Laerm;29352;48.708;9.290;2024-02-14T12:38:13;15.00;15.00;15.00;;
48148;Laerm;29352;48.708;9.290;2024-02-14T12:40:41;15.00;15.00;15.00;;
48148;Laerm;29352;48.708;9.290;2024-02-14T12:43:08;15.00;15.00;15.00;;
48148;Laerm;29352;48.708;9.290;2024-02-14T12:45:34;15.00;15.00;15.00;;
48148;Laerm;29352;48.708;9.290;2024-02-14T12:48:01;15.00;15.00;15.00;;
48148;Laerm;29352;48.708;9.290;2024-02-14T12:50:26;15.00;15.00;15.00;;
48148;Laerm;29352;48.708;9.290;2024-02-14T12:52:52;15.00;15.00;15.00;;
48148;Laerm;29352;48.708;9.290;2024-02-14T12:55:18;15.00;15.00;15.00;;
48148;Laerm;29352;48.708;9.290;2024-02-14T12:57:45;15.00;15.00;15.00;;
48148;Laerm;29352;48.708;9.290;2024-02-14T13:00:11;15.00;15.00;15.00;;
48148;Laerm;29352;48.708;9.290;2024-02-14T13:02:37;15.00;15.00;15.00;;
48148;Laerm;29352;48.708;9.290;2024-02-14T13:05:04;15.00;15.00;15.00;;
48148;Laerm;29352;48.708;9.290;2024-02-14T13:07:36;15.00;15.00;15.00;;
48148;Laerm;29352;48.708;9.290;2024-02-14T13:10:03;15.00;15.00;15.00;;
48148;Laerm;29352;48.708;9.290;2024-02-14T13:12:29;15.00;15.00;15.00;;
48148;Laerm;29352;48.708;9.290;2024-02-14T13:14:55;15.00;15.00;15.00;;
48148;Laerm;29352;48.708;9.290;2024-02-14T13:17:20;15.00;15.00;15.00;;
48148;Laerm;29352;48.708;9.290;2024-02-14T13:19:46;15.00;15.00;15.00;;
48148;Laerm;29352;48.708;9.290;2024-02-14T13:22:15;15.00;15.00;15.00;;
48148;Laerm;29352;48.708;9.290;2024-02-14T13:24:41;15.00;15.00;15.00;;
48148;Laerm;29352;48.708;9.290;2024-02-14T13:27:07;15.00;15.00;15.00;;
48148;Laerm;29352;48.708;9.290;2024-02-14T13:29:33;15.00;15.00;15.00;;
48148;Laerm;29352;48.708;9.290;2024-02-14T13:31:59;15.00;15.00;15.00;;
48148;Laerm;29352;48.708;9.290;2024-02-14T13:34:26;15.00;15.00;15.00;;
48148;Laerm;29352;48.708;9.290;2024-02-14T13:36:52;15.00;15.00;15.00;;
48148;Laerm;29352;48.708;9.290;2024-02-14T13:39:18;15.00;15.00;15.00;;
48148;Laerm;29352;48.708;9.290;2024-02-14T13:41:43;15.00;15.00;15.00;;
48148;Laerm;29352;48.708;9.290;2024-02-14T13:44:10;15.00;15.00;15.00;;
48148;Laerm;29352;48.708;9.290;2024-02-14T13:46:45;15.00;15.00;15.00;;
48148;Laerm;29352;48.708;9.290;2024-02-14T13:49:11;15.00;15.00;15.00;;
48148;Laerm;29352;48.708;9.290;2024-02-14T13:51:41;15.00;15.00;15.00;;